sensor_id;sensor_type;location;lat;lon;timestamp;pressure;altitude;pressure_sealevel;temperature;humidity
78745;BME280;68064;53.100;8.824;2023-07-13T00:00:15;101334.75;;;16.42;63.04
78745;BME280;68064;53.100;8.824;2023-07-13T00:01:17;101336.47;;;16.41;62.86
78745;BME280;68064;53.100;8.824;2023-07-13T00:02:18;101335.56;;;16.41;62.93
78745;BME280;68064;53.100;8.824;2023-07-13T00:03:19;101338.97;;;16.40;63.06
78745;BME280;68064;53.100;8.824;2023-07-13T00:04:22;101338.06;;;16.38;63.00
78745;BME280;68064;53.100;8.824;2023-07-13T00:05:23;101338.06;;;16.36;63.03
78745;BME280;68064;53.100;8.824;2023-07-13T00:06:25;101334.53;;;16.34;63.12
78745;BME280;68064;53.100;8.824;2023-07-13T00:07:25;101340.56;;;16.33;63.07
78745;BME280;68064;53.100;8.824;2023-07-13T00:08:30;101341.38;;;16.32;63.00
78745;BME280;68064;53.100;8.824;2023-07-13T00:09:31;101335.34;;;16.32;63.28
78745;BME280;68064;53.100;8.824;2023-07-13T00:10:32;101339.59;;;16.30;63.34
78745;BME280;68064;53.100;8.824;2023-07-13T00:11:35;101344.75;;;16.30;63.40
78745;BME280;68064;53.100;8.824;2023-07-13T00:12:39;101341.22;;;16.26;63.34
78745;BME280;68064;53.100;8.824;2023-07-13T00:13:40;101335.25;;;16.29;63.30
78745;BME280;68064;53.100;8.824;2023-07-13T00:14:41;101345.66;;;16.32;63.36
78745;BME280;68064;53.100;8.824;2023-07-13T00:15:42;101350.91;;;16.33;63.27
78745;BME280;68064;53.100;8.824;2023-07-13T00:16:43;101349.84;;;16.27;63.27
78745;BME280;68064;53.100;8.824;2023-07-13T00:17:44;101347.28;;;16.28;63.44
78745;BME280;68064;53.100;8.824;2023-07-13T00:18:45;101354.22;;;16.29;63.48
78745;BME280;68064;53.100;8.824;2023-07-13T00:19:46;101347.25;;;16.27;63.44
78745;BME280;68064;53.100;8.824;2023-07-13T00:20:48;101346.28;;;16.23;63.32
78745;BME280;68064;53.100;8.824;2023-07-13T00:21:49;101346.22;;;16.20;63.39
78745;BME280;68064;53.100;8.824;2023-07-13T00:22:51;101349.63;;;16.19;63.51
78745;BME280;68064;53.100;8.824;2023-07-13T00:23:52;101350.31;;;16.14;63.68
78745;BME280;68064;53.100;8.824;2023-07-13T00:24:53;101353.59;;;16.08;66.59
78745;BME280;68064;53.100;8.824;2023-07-13T00:25:54;101357.84;;;16.06;64.37
78745;BME280;68064;53.100;8.824;2023-07-13T00:26:59;101356.13;;;16.07;64.00
78745;BME280;68064;53.100;8.824;2023-07-13T00:28:00;101358.88;;;16.11;63.76
78745;BME280;68064;53.100;8.824;2023-07-13T00:29:01;101359.59;;;16.07;64.19
78745;BME280;68064;53.100;8.824;2023-07-13T00:30:03;101356.13;;;16.07;63.64
78745;BME280;68064;53.100;8.824;2023-07-13T00:31:04;101360.41;;;16.06;63.50
78745;BME280;68064;53.100;8.824;2023-07-13T00:32:05;101358.63;;;16.04;63.37
78745;BME280;68064;53.100;8.824;2023-07-13T00:33:07;101360.41;;;16.06;63.34
78745;BME280;68064;53.100;8.824;2023-07-13T00:34:08;101359.50;;;16.04;63.39
78745;BME280;68064;53.100;8.824;2023-07-13T00:35:09;101358.56;;;16.02;63.35
78745;BME280;68064;53.100;8.824;2023-07-13T00:36:11;101356.88;;;16.03;63.48
78745;BME280;68064;53.100;8.824;2023-07-13T00:37:12;101360.41;;;16.05;63.51
78745;BME280;68064;53.100;8.824;2023-07-13T00:38:13;101361.16;;;16.02;63.58
78745;BME280;68064;53.100;8.824;2023-07-13T00:39:14;101356.84;;;16.01;63.35
78745;BME280;68064;53.100;8.824;2023-07-13T00:40:15;101357.66;;;16.00;63.70
78745;BME280;68064;53.100;8.824;2023-07-13T00:41:16;101352.59;;;16.03;63.45
78745;BME280;68064;53.100;8.824;2023-07-13T00:42:18;101352.44;;;15.99;63.34
78745;BME280;68064;53.100;8.824;2023-07-13T00:43:23;101355.88;;;15.98;63.17
78745;BME280;68064;53.100;8.824;2023-07-13T00:44:24;101366.16;;;15.96;63.24
78745;BME280;68064;53.100;8.824;2023-07-13T00:46:09;101359.97;;;15.91;63.36
78745;BME280;68064;53.100;8.824;2023-07-13T00:47:11;101356.59;;;15.92;63.46
78745;BME280;68064;53.100;8.824;2023-07-13T00:48:12;101359.97;;;15.91;63.22
78745;BME280;68064;53.100;8.824;2023-07-13T00:49:20;101365.06;;;15.88;63.21
78745;BME280;68064;53.100;8.824;2023-07-13T00:50:22;101366.75;;;15.87;63.36
78745;BME280;68064;53.100;8.824;2023-07-13T00:51:30;101364.97;;;15.85;63.34
78745;BME280;68064;53.100;8.824;2023-07-13T00:52:36;101365.78;;;15.84;63.30
78745;BME280;68064;53.100;8.824;2023-07-13T00:53:37;101365.88;;;15.87;63.52
78745;BME280;68064;53.100;8.824;2023-07-13T00:54:43;101361.50;;;15.84;63.57
78745;BME280;68064;53.100;8.824;2023-07-13T00:55:46;101362.28;;;15.82;64.00
78745;BME280;68064;53.100;8.824;2023-07-13T00:56:50;101363.22;;;15.84;63.74
78745;BME280;68064;53.100;8.824;2023-07-13T00:57:53;101365.69;;;15.81;63.43
78745;BME280;68064;53.100;8.824;2023-07-13T00:58:56;101364.63;;;15.74;64.49
78745;BME280;68064;53.100;8.824;2023-07-13T00:59:59;101366.34;;;15.74;64.00
78745;BME280;68064;53.100;8.824;2023-07-13T01:01:01;101369.06;;;15.78;63.98
78745;BME280;68064;53.100;8.824;2023-07-13T01:02:03;101362.94;;;15.75;63.80
78745;BME280;68064;53.100;8.824;2023-07-13T01:03:04;101363.84;;;15.77;63.55
78745;BME280;68064;53.100;8.824;2023-07-13T01:04:06;101362.94;;;15.75;63.41
78745;BME280;68064;53.100;8.824;2023-07-13T01:05:09;101359.44;;;15.73;63.51
78745;BME280;68064;53.100;8.824;2023-07-13T01:06:11;101362.03;;;15.73;63.44
78745;BME280;68064;53.100;8.824;2023-07-13T01:07:12;101363.75;;;15.74;63.64
78745;BME280;68064;53.100;8.824;2023-07-13T01:08:15;101355.88;;;15.69;63.46
78745;BME280;68064;53.100;8.824;2023-07-13T01:09:17;101361.91;;;15.70;63.56
78745;BME280;68064;53.100;8.824;2023-07-13T01:10:19;101359.28;;;15.68;63.61
78745;BME280;68064;53.100;8.824;2023-07-13T01:11:21;101362.75;;;15.69;63.57
78745;BME280;68064;53.100;8.824;2023-07-13T01:12:23;101361.00;;;15.68;63.51
78745;BME280;68064;53.100;8.824;2023-07-13T01:13:25;101362.56;;;15.63;64.20
78745;BME280;68064;53.100;8.824;2023-07-13T01:14:27;101356.56;;;15.64;63.97
78745;BME280;68064;53.100;8.824;2023-07-13T01:15:36;101368.63;;;15.65;69.12
78745;BME280;68064;53.100;8.824;2023-07-13T01:16:39;101365.09;;;15.61;65.09
78745;BME280;68064;53.100;8.824;2023-07-13T01:17:41;101371.03;;;15.59;63.89
78745;BME280;68064;53.100;8.824;2023-07-13T01:18:42;101359.91;;;15.61;64.03
78745;BME280;68064;53.100;8.824;2023-07-13T01:19:44;101361.81;;;15.67;64.53
78745;BME280;68064;53.100;8.824;2023-07-13T01:20:51;101365.50;;;15.75;64.69
78745;BME280;68064;53.100;8.824;2023-07-13T01:21:53;101365.38;;;15.70;67.93
78745;BME280;68064;53.100;8.824;2023-07-13T01:22:54;101362.78;;;15.70;65.10
78745;BME280;68064;53.100;8.824;2023-07-13T01:23:55;101358.31;;;15.65;64.62
78745;BME280;68064;53.100;8.824;2023-07-13T01:24:56;101356.56;;;15.64;64.19
78745;BME280;68064;53.100;8.824;2023-07-13T01:25:57;101356.44;;;15.59;65.45
78745;BME280;68064;53.100;8.824;2023-07-13T01:26:59;101353.84;;;15.59;68.76
78745;BME280;68064;53.100;8.824;2023-07-13T01:27:59;101349.41;;;15.55;65.19
78745;BME280;68064;53.100;8.824;2023-07-13T01:29:01;101348.78;;;15.62;64.48
78745;BME280;68064;53.100;8.824;2023-07-13T01:30:01;101351.38;;;15.64;64.63
78745;BME280;68064;53.100;8.824;2023-07-13T01:31:03;101349.75;;;15.66;64.73
78745;BME280;68064;53.100;8.824;2023-07-13T01:32:06;101344.69;;;15.69;64.82
78745;BME280;68064;53.100;8.824;2023-07-13T01:33:07;101350.53;;;15.63;64.60
78745;BME280;68064;53.100;8.824;2023-07-13T01:34:08;101347.84;;;15.60;64.12
78745;BME280;68064;53.100;8.824;2023-07-13T01:35:10;101348.59;;;15.56;67.87
78745;BME280;68064;53.100;8.824;2023-07-13T01:36:12;101348.44;;;15.52;64.38
78745;BME280;68064;53.100;8.824;2023-07-13T01:37:13;101351.03;;;15.52;64.05
78745;BME280;68064;53.100;8.824;2023-07-13T01:38:15;101346.59;;;15.48;64.95
78745;BME280;68064;53.100;8.824;2023-07-13T01:39:16;101355.97;;;15.46;70.19
78745;BME280;68064;53.100;8.824;2023-07-13T01:40:18;101358.41;;;15.41;67.76
78745;BME280;68064;53.100;8.824;2023-07-13T01:41:19;101362.63;;;15.39;66.79
78745;BME280;68064;53.100;8.824;2023-07-13T01:42:20;101351.41;;;15.37;65.05
78745;BME280;68064;53.100;8.824;2023-07-13T01:43:21;101353.09;;;15.36;67.38
78745;BME280;68064;53.100;8.824;2023-07-13T01:44:22;101353.91;;;15.35;65.92
78745;BME280;68064;53.100;8.824;2023-07-13T01:45:22;101352.28;;;15.38;65.05
78745;BME280;68064;53.100;8.824;2023-07-13T01:46:23;101359.34;;;15.45;64.54
78745;BME280;68064;53.100;8.824;2023-07-13T01:47:24;101359.25;;;15.42;70.07
78745;BME280;68064;53.100;8.824;2023-07-13T01:48:25;101352.41;;;15.42;65.15
78745;BME280;68064;53.100;8.824;2023-07-13T01:49:26;101353.19;;;15.40;64.51
78745;BME280;68064;53.100;8.824;2023-07-13T01:50:27;101358.19;;;15.35;68.30
78745;BME280;68064;53.100;8.824;2023-07-13T01:51:30;101361.63;;;15.34;69.81
78745;BME280;68064;53.100;8.824;2023-07-13T01:52:31;101355.47;;;15.30;65.63
78745;BME280;68064;53.100;8.824;2023-07-13T01:53:32;101355.50;;;15.32;65.29
78745;BME280;68064;53.100;8.824;2023-07-13T01:54:33;101349.53;;;15.33;64.89
78745;BME280;68064;53.100;8.824;2023-07-13T01:55:34;101352.09;;;15.31;64.56
78745;BME280;68064;53.100;8.824;2023-07-13T01:56:35;101352.13;;;15.33;64.53
78745;BME280;68064;53.100;8.824;2023-07-13T01:57:36;101359.81;;;15.31;64.28
78745;BME280;68064;53.100;8.824;2023-07-13T01:58:37;101357.38;;;15.36;64.32
78745;BME280;68064;53.100;8.824;2023-07-13T01:59:38;101351.41;;;15.37;65.14
78745;BME280;68064;53.100;8.824;2023-07-13T02:00:39;101356.69;;;15.42;65.63
78745;BME280;68064;53.100;8.824;2023-07-13T02:01:40;101355.69;;;15.38;70.74
78745;BME280;68064;53.100;8.824;2023-07-13T02:02:41;101356.47;;;15.34;68.65
78745;BME280;68064;53.100;8.824;2023-07-13T02:03:42;101350.31;;;15.30;65.90
78745;BME280;68064;53.100;8.824;2023-07-13T02:04:43;101353.78;;;15.31;64.80
78745;BME280;68064;53.100;8.824;2023-07-13T02:05:44;101354.69;;;15.33;64.71
78745;BME280;68064;53.100;8.824;2023-07-13T02:06:46;101354.75;;;15.34;64.59
78745;BME280;68064;53.100;8.824;2023-07-13T02:07:48;101354.09;;;15.42;72.07
78745;BME280;68064;53.100;8.824;2023-07-13T02:08:48;101359.03;;;15.34;67.45
78745;BME280;68064;53.100;8.824;2023-07-13T02:09:49;101358.09;;;15.32;67.59
78745;BME280;68064;53.100;8.824;2023-07-13T02:10:51;101349.38;;;15.28;67.85
78745;BME280;68064;53.100;8.824;2023-07-13T02:11:51;101351.31;;;15.34;71.95
78745;BME280;68064;53.100;8.824;2023-07-13T02:12:52;101358.00;;;15.29;71.55
78745;BME280;68064;53.100;8.824;2023-07-13T02:13:53;101354.44;;;15.25;73.17
78745;BME280;68064;53.100;8.824;2023-07-13T02:14:54;101355.28;;;15.24;66.41
78745;BME280;68064;53.100;8.824;2023-07-13T02:15:55;101360.47;;;15.26;73.99
78745;BME280;68064;53.100;8.824;2023-07-13T02:16:56;101356.00;;;15.20;68.43
78745;BME280;68064;53.100;8.824;2023-07-13T02:17:57;101354.25;;;15.19;66.54
78745;BME280;68064;53.100;8.824;2023-07-13T02:18:58;101353.50;;;15.22;68.02
78745;BME280;68064;53.100;8.824;2023-07-13T02:19:59;101357.78;;;15.21;66.42
78745;BME280;68064;53.100;8.824;2023-07-13T02:21:00;101360.56;;;15.29;65.46
78745;BME280;68064;53.100;8.824;2023-07-13T02:22:03;101357.00;;;15.25;65.11
78745;BME280;68064;53.100;8.824;2023-07-13T02:23:04;101359.69;;;15.28;65.12
78745;BME280;68064;53.100;8.824;2023-07-13T02:24:05;101362.34;;;15.30;67.51
78745;BME280;68064;53.100;8.824;2023-07-13T02:25:07;101358.09;;;15.32;66.83
78745;BME280;68064;53.100;8.824;2023-07-13T02:26:08;101362.19;;;15.25;71.95
78745;BME280;68064;53.100;8.824;2023-07-13T02:27:09;101355.19;;;15.21;68.38
78745;BME280;68064;53.100;8.824;2023-07-13T02:28:10;101358.69;;;15.23;68.29
78745;BME280;68064;53.100;8.824;2023-07-13T02:29:11;101355.28;;;15.24;66.22
78745;BME280;68064;53.100;8.824;2023-07-13T02:30:14;101357.13;;;15.28;66.93
78745;BME280;68064;53.100;8.824;2023-07-13T02:31:16;101352.75;;;15.26;66.55
78745;BME280;68064;53.100;8.824;2023-07-13T02:32:17;101350.16;;;15.26;71.28
78745;BME280;68064;53.100;8.824;2023-07-13T02:33:18;101343.19;;;15.22;69.10
78745;BME280;68064;53.100;8.824;2023-07-13T02:34:19;101349.16;;;15.21;73.73
78745;BME280;68064;53.100;8.824;2023-07-13T02:35:20;101344.56;;;15.12;69.57
78745;BME280;68064;53.100;8.824;2023-07-13T02:36:21;101338.56;;;15.13;66.56
78745;BME280;68064;53.100;8.824;2023-07-13T02:37:24;101344.72;;;15.17;76.37
78745;BME280;68064;53.100;8.824;2023-07-13T02:38:25;101347.19;;;15.14;68.12
78745;BME280;68064;53.100;8.824;2023-07-13T02:39:26;101344.56;;;15.12;71.83
78745;BME280;68064;53.100;8.824;2023-07-13T02:40:27;101345.41;;;15.11;74.19
78745;BME280;68064;53.100;8.824;2023-07-13T02:41:28;101355.63;;;15.08;73.46
78745;BME280;68064;53.100;8.824;2023-07-13T02:42:29;101346.28;;;15.12;67.94
78745;BME280;68064;53.100;8.824;2023-07-13T02:43:31;101342.81;;;15.11;67.24
78745;BME280;68064;53.100;8.824;2023-07-13T02:44:32;101342.91;;;15.14;66.45
78745;BME280;68064;53.100;8.824;2023-07-13T02:45:33;101342.00;;;15.12;66.27
78745;BME280;68064;53.100;8.824;2023-07-13T02:46:36;101343.63;;;15.10;67.21
78745;BME280;68064;53.100;8.824;2023-07-13T02:47:37;101336.72;;;15.09;66.77
78745;BME280;68064;53.100;8.824;2023-07-13T02:48:39;101332.00;;;15.23;66.52
78745;BME280;68064;53.100;8.824;2023-07-13T02:49:39;101335.44;;;15.22;66.06
78745;BME280;68064;53.100;8.824;2023-07-13T02:50:40;101332.19;;;15.29;66.09
78745;BME280;68064;53.100;8.824;2023-07-13T02:51:42;101339.06;;;15.28;65.67
78745;BME280;68064;53.100;8.824;2023-07-13T02:52:44;101335.44;;;15.22;65.38
78745;BME280;68064;53.100;8.824;2023-07-13T02:53:45;101328.41;;;15.18;68.78
78745;BME280;68064;53.100;8.824;2023-07-13T02:54:46;101325.78;;;15.16;65.25
78745;BME280;68064;53.100;8.824;2023-07-13T02:55:47;101334.38;;;15.15;74.53
78745;BME280;68064;53.100;8.824;2023-07-13T02:56:49;101340.25;;;15.11;74.76
78745;BME280;68064;53.100;8.824;2023-07-13T02:57:49;101339.25;;;15.08;67.57
78745;BME280;68064;53.100;8.824;2023-07-13T02:58:50;101339.34;;;15.11;66.40
78745;BME280;68064;53.100;8.824;2023-07-13T02:59:51;101340.34;;;15.14;65.96
78745;BME280;68064;53.100;8.824;2023-07-13T03:00:52;101343.78;;;15.15;65.57
78745;BME280;68064;53.100;8.824;2023-07-13T03:01:54;101338.53;;;15.12;69.42
78745;BME280;68064;53.100;8.824;2023-07-13T03:02:55;101348.09;;;15.16;65.40
78745;BME280;68064;53.100;8.824;2023-07-13T03:03:56;101349.84;;;15.15;70.07
78745;BME280;68064;53.100;8.824;2023-07-13T03:04:58;101346.31;;;15.13;66.70
78745;BME280;68064;53.100;8.824;2023-07-13T03:06:00;101355.84;;;15.16;66.66
78745;BME280;68064;53.100;8.824;2023-07-13T03:07:02;101347.97;;;15.11;66.05
78745;BME280;68064;53.100;8.824;2023-07-13T03:08:05;101360.06;;;15.12;73.33
78745;BME280;68064;53.100;8.824;2023-07-13T03:09:06;101354.00;;;15.12;68.69
78745;BME280;68064;53.100;8.824;2023-07-13T03:10:08;101355.66;;;15.10;70.40
78745;BME280;68064;53.100;8.824;2023-07-13T03:11:11;101351.16;;;15.04;71.48
78745;BME280;68064;53.100;8.824;2023-07-13T03:12:12;101349.41;;;15.03;74.99
78745;BME280;68064;53.100;8.824;2023-07-13T03:13:13;101351.84;;;14.99;69.16
78745;BME280;68064;53.100;8.824;2023-07-13T03:14:14;101354.44;;;14.99;71.15
78745;BME280;68064;53.100;8.824;2023-07-13T03:15:15;101354.38;;;14.97;67.41
78745;BME280;68064;53.100;8.824;2023-07-13T03:16:16;101347.56;;;14.99;69.29
78745;BME280;68064;53.100;8.824;2023-07-13T03:17:17;101350.16;;;14.99;66.97
78745;BME280;68064;53.100;8.824;2023-07-13T03:18:18;101349.28;;;14.99;68.67
78745;BME280;68064;53.100;8.824;2023-07-13T03:19:19;101349.31;;;15.00;67.29
78745;BME280;68064;53.100;8.824;2023-07-13T03:20:20;101353.06;;;15.10;72.33
78745;BME280;68064;53.100;8.824;2023-07-13T03:21:21;101349.59;;;15.09;67.02
78745;BME280;68064;53.100;8.824;2023-07-13T03:22:22;101353.06;;;15.10;66.42
78745;BME280;68064;53.100;8.824;2023-07-13T03:23:24;101348.09;;;15.16;71.40
78745;BME280;68064;53.100;8.824;2023-07-13T03:24:25;101355.00;;;15.15;66.27
78745;BME280;68064;53.100;8.824;2023-07-13T03:25:26;101356.81;;;15.19;66.53
78745;BME280;68064;53.100;8.824;2023-07-13T03:26:27;101358.59;;;15.20;73.01
78745;BME280;68064;53.100;8.824;2023-07-13T03:27:28;101361.06;;;15.17;70.98
78745;BME280;68064;53.100;8.824;2023-07-13T03:28:29;101357.66;;;15.18;68.68
78745;BME280;68064;53.100;8.824;2023-07-13T03:29:30;101364.44;;;15.15;66.84
78745;BME280;68064;53.100;8.824;2023-07-13T03:30:31;101366.22;;;15.17;72.82
78745;BME280;68064;53.100;8.824;2023-07-13T03:31:34;101359.38;;;15.18;72.61
78745;BME280;68064;53.100;8.824;2023-07-13T03:32:35;101361.00;;;15.16;73.35
78745;BME280;68064;53.100;8.824;2023-07-13T03:33:36;101361.84;;;15.15;73.65
78745;BME280;68064;53.100;8.824;2023-07-13T03:34:38;101367.78;;;15.12;69.94
78745;BME280;68064;53.100;8.824;2023-07-13T03:35:40;101365.22;;;15.12;71.48
78745;BME280;68064;53.100;8.824;2023-07-13T03:36:41;101372.00;;;15.10;68.04
78745;BME280;68064;53.100;8.824;2023-07-13T03:37:42;101373.03;;;15.15;69.96
78745;BME280;68064;53.100;8.824;2023-07-13T03:38:44;101367.00;;;15.15;70.19
78745;BME280;68064;53.100;8.824;2023-07-13T03:39:45;101364.53;;;15.18;66.16
78745;BME280;68064;53.100;8.824;2023-07-13T03:40:46;101365.69;;;15.27;72.74
78745;BME280;68064;53.100;8.824;2023-07-13T03:41:47;101365.53;;;15.23;66.76
78745;BME280;68064;53.100;8.824;2023-07-13T03:42:48;101370.69;;;15.23;66.73
78745;BME280;68064;53.100;8.824;2023-07-13T03:43:49;101373.34;;;15.24;66.71
78745;BME280;68064;53.100;8.824;2023-07-13T03:44:50;101377.72;;;15.27;70.97
78745;BME280;68064;53.100;8.824;2023-07-13T03:45:51;101376.03;;;15.27;69.37
78745;BME280;68064;53.100;8.824;2023-07-13T03:46:52;101374.25;;;15.26;67.63
78745;BME280;68064;53.100;8.824;2023-07-13T03:47:53;101376.91;;;15.28;65.88
78745;BME280;68064;53.100;8.824;2023-07-13T03:48:55;101370.97;;;15.30;70.06
78745;BME280;68064;53.100;8.824;2023-07-13T03:49:56;101369.25;;;15.31;65.91
78745;BME280;68064;53.100;8.824;2023-07-13T03:50:57;101371.06;;;15.33;67.53
78745;BME280;68064;53.100;8.824;2023-07-13T03:51:58;101367.66;;;15.34;72.83
78745;BME280;68064;53.100;8.824;2023-07-13T03:53:00;101377.13;;;15.35;73.04
78745;BME280;68064;53.100;8.824;2023-07-13T03:54:03;101373.72;;;15.36;66.96
78745;BME280;68064;53.100;8.824;2023-07-13T03:55:04;101374.56;;;15.35;66.85
78745;BME280;68064;53.100;8.824;2023-07-13T03:56:06;101374.56;;;15.35;66.56
78745;BME280;68064;53.100;8.824;2023-07-13T03:57:07;101382.34;;;15.37;67.76
78745;BME280;68064;53.100;8.824;2023-07-13T03:58:30;101373.72;;;15.36;66.70
78745;BME280;68064;53.100;8.824;2023-07-13T03:59:31;101372.84;;;15.36;65.96
78745;BME280;68064;53.100;8.824;2023-07-13T04:00:32;101384.00;;;15.35;65.55
78745;BME280;68064;53.100;8.824;2023-07-13T04:01:33;101375.59;;;15.41;64.67
78745;BME280;68064;53.100;8.824;2023-07-13T04:02:34;101382.47;;;15.42;66.28
78745;BME280;68064;53.100;8.824;2023-07-13T04:03:36;101376.56;;;15.44;66.61
78745;BME280;68064;53.100;8.824;2023-07-13T04:04:37;101376.59;;;15.46;70.87
78745;BME280;68064;53.100;8.824;2023-07-13T04:05:38;101381.72;;;15.44;69.80
78745;BME280;68064;53.100;8.824;2023-07-13T04:06:39;101383.53;;;15.47;66.56
78745;BME280;68064;53.100;8.824;2023-07-13T04:07:41;101374.97;;;15.48;68.11
78745;BME280;68064;53.100;8.824;2023-07-13T04:08:42;101378.59;;;15.53;71.62
78745;BME280;68064;53.100;8.824;2023-07-13T04:09:44;101384.56;;;15.52;67.98
78745;BME280;68064;53.100;8.824;2023-07-13T04:10:45;101372.44;;;15.49;66.07
78745;BME280;68064;53.100;8.824;2023-07-13T04:11:46;101377.69;;;15.51;66.21
78745;BME280;68064;53.100;8.824;2023-07-13T04:12:47;101373.44;;;15.53;70.25
78745;BME280;68064;53.100;8.824;2023-07-13T04:13:48;101382.09;;;15.55;67.16
78745;BME280;68064;53.100;8.824;2023-07-13T04:14:49;101373.47;;;15.54;66.76
78745;BME280;68064;53.100;8.824;2023-07-13T04:15:51;101380.47;;;15.58;74.37
78745;BME280;68064;53.100;8.824;2023-07-13T04:16:52;101370.13;;;15.57;67.48
78745;BME280;68064;53.100;8.824;2023-07-13T04:17:53;101379.59;;;15.58;66.68
78745;BME280;68064;53.100;8.824;2023-07-13T04:18:54;101386.53;;;15.60;67.98
78745;BME280;68064;53.100;8.824;2023-07-13T04:19:55;101387.41;;;15.59;66.82
78745;BME280;68064;53.100;8.824;2023-07-13T04:20:56;101378.88;;;15.62;67.78
78745;BME280;68064;53.100;8.824;2023-07-13T04:21:57;101385.81;;;15.64;71.53
78745;BME280;68064;53.100;8.824;2023-07-13T04:22:58;101375.47;;;15.63;67.38
78745;BME280;68064;53.100;8.824;2023-07-13T04:24:00;101377.25;;;15.65;66.44
78745;BME280;68064;53.100;8.824;2023-07-13T04:25:02;101374.69;;;15.65;68.95
78745;BME280;68064;53.100;8.824;2023-07-13T04:26:04;101378.16;;;15.66;69.09
78745;BME280;68064;53.100;8.824;2023-07-13T04:27:06;101380.75;;;15.67;72.21
78745;BME280;68064;53.100;8.824;2023-07-13T04:28:07;101378.09;;;15.64;68.63
78745;BME280;68064;53.100;8.824;2023-07-13T04:29:08;101376.47;;;15.68;72.17
78745;BME280;68064;53.100;8.824;2023-07-13T04:30:10;101383.44;;;15.70;71.53
78745;BME280;68064;53.100;8.824;2023-07-13T04:31:11;101379.06;;;15.68;66.33
78745;BME280;68064;53.100;8.824;2023-07-13T04:32:12;101374.81;;;15.70;66.30
78745;BME280;68064;53.100;8.824;2023-07-13T04:33:13;101381.81;;;15.74;71.28
78745;BME280;68064;53.100;8.824;2023-07-13T04:34:14;101381.88;;;15.75;72.80
78745;BME280;68064;53.100;8.824;2023-07-13T04:35:15;101378.34;;;15.73;66.47
78745;BME280;68064;53.100;8.824;2023-07-13T04:36:16;101388.84;;;15.78;71.42
78745;BME280;68064;53.100;8.824;2023-07-13T04:37:17;101387.06;;;15.77;68.24
78745;BME280;68064;53.100;8.824;2023-07-13T04:38:18;101383.72;;;15.79;67.71
78745;BME280;68064;53.100;8.824;2023-07-13T04:39:19;101380.31;;;15.80;71.34
78745;BME280;68064;53.100;8.824;2023-07-13T04:40:21;101382.00;;;15.80;67.91
78745;BME280;68064;53.100;8.824;2023-07-13T04:41:22;101384.59;;;15.80;67.35
78745;BME280;68064;53.100;8.824;2023-07-13T04:42:23;101384.59;;;15.80;65.22
78745;BME280;68064;53.100;8.824;2023-07-13T04:43:25;101384.59;;;15.80;66.24
78745;BME280;68064;53.100;8.824;2023-07-13T04:44:26;101382.00;;;15.80;68.01
78745;BME280;68064;53.100;8.824;2023-07-13T04:45:27;101381.28;;;15.84;72.23
78745;BME280;68064;53.100;8.824;2023-07-13T04:46:28;101384.59;;;15.80;66.24
78745;BME280;68064;53.100;8.824;2023-07-13T04:47:30;101391.50;;;15.81;65.44
78745;BME280;68064;53.100;8.824;2023-07-13T04:48:31;101384.75;;;15.84;65.21
78745;BME280;68064;53.100;8.824;2023-07-13T04:49:32;101390.78;;;15.85;65.83
78745;BME280;68064;53.100;8.824;2023-07-13T04:50:36;101387.34;;;15.86;68.84
78745;BME280;68064;53.100;8.824;2023-07-13T04:51:37;101386.50;;;15.85;67.01
78745;BME280;68064;53.100;8.824;2023-07-13T04:52:38;101386.53;;;15.87;67.80
78745;BME280;68064;53.100;8.824;2023-07-13T04:53:39;101390.81;;;15.86;67.00
78745;BME280;68064;53.100;8.824;2023-07-13T04:54:40;101382.25;;;15.87;69.03
78745;BME280;68064;53.100;8.824;2023-07-13T04:55:42;101382.28;;;15.89;71.95
78745;BME280;68064;53.100;8.824;2023-07-13T04:56:43;101385.81;;;15.91;65.52
78745;BME280;68064;53.100;8.824;2023-07-13T04:57:44;101391.09;;;15.96;71.40
78745;BME280;68064;53.100;8.824;2023-07-13T04:58:45;101387.59;;;15.94;66.20
78745;BME280;68064;53.100;8.824;2023-07-13T04:59:46;101388.56;;;15.97;69.86
78745;BME280;68064;53.100;8.824;2023-07-13T05:00:47;101386.81;;;15.96;69.66
78745;BME280;68064;53.100;8.824;2023-07-13T05:01:48;101389.38;;;15.96;67.62
78745;BME280;68064;53.100;8.824;2023-07-13T05:02:50;101381.72;;;15.99;67.93
78745;BME280;68064;53.100;8.824;2023-07-13T05:03:50;101386.94;;;16.01;66.92
78745;BME280;68064;53.100;8.824;2023-07-13T05:04:51;101381.81;;;16.02;67.45
78745;BME280;68064;53.100;8.824;2023-07-13T05:05:56;101390.50;;;16.04;71.54
78745;BME280;68064;53.100;8.824;2023-07-13T05:06:58;101399.06;;;16.02;68.12
78745;BME280;68064;53.100;8.824;2023-07-13T05:08:00;101391.31;;;16.03;68.48
78745;BME280;68064;53.100;8.824;2023-07-13T05:09:01;101397.41;;;16.05;71.52
78745;BME280;68064;53.100;8.824;2023-07-13T05:10:03;101400.03;;;16.07;69.06
78745;BME280;68064;53.100;8.824;2023-07-13T05:11:05;101400.03;;;16.07;66.25
78745;BME280;68064;53.100;8.824;2023-07-13T05:12:07;101404.41;;;16.09;72.13
78745;BME280;68064;53.100;8.824;2023-07-13T05:13:09;101400.97;;;16.09;70.92
78745;BME280;68064;53.100;8.824;2023-07-13T05:14:10;101394.88;;;16.07;70.44
78745;BME280;68064;53.100;8.824;2023-07-13T05:15:11;101399.25;;;16.09;70.02
78745;BME280;68064;53.100;8.824;2023-07-13T05:16:12;101401.84;;;16.09;69.41
78745;BME280;68064;53.100;8.824;2023-07-13T05:17:13;101403.59;;;16.10;65.42
78745;BME280;68064;53.100;8.824;2023-07-13T05:18:14;101404.59;;;16.15;66.89
78745;BME280;68064;53.100;8.824;2023-07-13T05:19:15;101410.66;;;16.16;69.89
78745;BME280;68064;53.100;8.824;2023-07-13T05:20:17;101405.56;;;16.19;71.28
78745;BME280;68064;53.100;8.824;2023-07-13T05:21:19;101409.81;;;16.17;67.09
78745;BME280;68064;53.100;8.824;2023-07-13T05:22:20;101406.50;;;16.21;69.60